Time;durP1;ratioP1;P1;durP2;ratioP2;P2;SDS_P1;SDS_P2;PMS_P1;PMS_P2;Temp;Humidity;BMP_temperature;BMP_pressure;BME280_temperature;BME280_humidity;BME280_pressure;Samples;Min_cycle;Max_cycle;Signal;HPM_P1;HPM_P2
2023/06/04 00:03:06;;;;;;;2.08;0.70;;;;;;;11.77;64.33;98709.56;15284617;19;20021;-39
2023/06/04 00:08:37;;;;;;;2.67;0.80;;;;;;;11.77;64.13;98704.16;15278129;19;20354;-40
2023/06/04 00:14:02;;;;;;;1.00;0.90;;;;;;;11.70;67.96;98699.41;15288466;19;20073;-39
2023/06/04 00:19:30;;;;;;;2.83;1.63;;;;;;;11.57;71.40;98693.63;15288704;19;20018;-39
2023/06/04 00:24:54;;;;;;;2.63;1.20;;;;;;;11.42;73.17;98696.06;15285897;19;20279;-38
2023/06/04 00:30:20;;;;;;;1.10;1.00;;;;;;;11.27;73.21;98693.09;15288555;19;20259;-40
2023/06/04 00:35:48;;;;;;;1.02;0.77;;;;;;;11.16;74.35;98690.69;15276998;19;20015;-39
2023/06/04 00:41:13;;;;;;;0.77;0.70;;;;;;;11.06;73.71;98686.25;15278771;19;20045;-39
2023/06/04 00:46:38;;;;;;;0.60;0.60;;;;;;;11.00;76.12;98691.41;15282126;19;20082;-39
2023/06/04 00:52:06;;;;;;;1.05;0.80;;;;;;;10.88;78.21;98682.72;15285768;19;20010;-39
2023/06/04 00:57:30;;;;;;;1.08;0.63;;;;;;;10.80;79.49;98680.81;15283053;19;20599;-41
2023/06/04 01:03:02;;;;;;;2.10;0.80;;;;;;;10.73;79.17;98687.81;15285261;19;20042;-39
2023/06/04 01:08:37;;;;;;;3.50;0.80;;;;;;;10.61;85.17;98687.25;15276801;19;20010;-77
2023/06/04 01:14:02;;;;;;;2.92;0.88;;;;;;;10.52;88.28;98688.16;15280687;19;20037;-77
2023/06/04 01:19:54;;;;;;;0.65;0.65;;;;;;;10.39;92.54;98693.94;15290537;19;20013;-77
2023/06/04 01:25:23;;;;;;;;;;;;;;;10.24;98.56;98690.88;15286464;19;20027;-77
2023/06/04 01:30:56;;;;;;;1.27;0.65;;;;;;;10.12;92.35;98683.03;15286604;19;19927;-76
2023/06/04 01:36:21;;;;;;;1.42;0.70;;;;;;;9.99;94.86;98686.09;15282145;19;20045;-77
2023/06/04 01:41:49;;;;;;;0.75;0.75;;;;;;;9.87;96.82;98674.69;15287236;19;20771;-76
2023/06/04 01:47:13;;;;;;;1.27;1.00;;;;;;;9.75;100.00;98692.03;15281702;19;20023;-76
2023/06/04 01:52:38;;;;;;;5.07;1.00;;;;;;;9.61;100.00;98689.81;15288990;19;20010;-76
2023/06/04 01:58:07;;;;;;;1.20;0.90;;;;;;;9.45;100.00;98696.69;15288344;19;20537;-76
2023/06/04 02:03:38;;;;;;;1.73;1.00;;;;;;;9.30;100.00;98690.94;15286384;19;20011;-77
2023/06/04 02:09:11;;;;;;;0.80;0.73;;;;;;;9.18;100.00;98692.97;15278907;19;20010;-76
2023/06/04 02:14:38;;;;;;;1.02;0.88;;;;;;;9.04;100.00;98691.59;15284526;19;20026;-77
2023/06/04 02:20:03;;;;;;;1.23;0.60;;;;;;;8.90;100.00;98697.41;15286338;19;20013;-76
2023/06/04 02:25:28;;;;;;;1.58;1.00;;;;;;;8.83;100.00;98691.75;15286113;19;20039;-78
2023/06/04 02:30:56;;;;;;;1.00;0.90;;;;;;;8.78;100.00;98685.94;15287536;19;20062;-76
2023/06/04 02:36:20;;;;;;;1.27;0.73;;;;;;;8.69;100.00;98695.75;15284344;19;20488;-76
2023/06/04 02:41:45;;;;;;;2.70;0.82;;;;;;;8.60;100.00;98704.63;15322588;19;20015;-76
2023/06/04 02:47:12;;;;;;;1.35;0.90;;;;;;;8.51;100.00;98713.53;15314366;19;20019;-75
2023/06/04 02:52:37;;;;;;;2.05;0.90;;;;;;;8.43;100.00;98706.16;15280209;19;20092;-75
2023/06/04 02:58:02;;;;;;;2.00;0.90;;;;;;;8.36;100.00;98705.03;15282550;19;20039;-76
2023/06/04 03:03:31;;;;;;;1.73;0.88;;;;;;;8.24;100.00;98707.84;15280654;19;20027;-75
2023/06/04 03:09:04;;;;;;;1.33;0.80;;;;;;;8.15;100.00;98716.72;15288680;19;20014;-76
2023/06/04 03:14:31;;;;;;;1.15;0.90;;;;;;;8.10;100.00;98721.66;15287150;19;20019;-76
2023/06/04 03:19:59;;;;;;;1.20;0.80;;;;;;;8.04;100.00;98730.28;15291817;19;20023;-76
2023/06/04 03:25:23;;;;;;;1.60;0.90;;;;;;;7.95;100.00;98718.50;15295326;19;20011;-76
2023/06/04 03:30:49;;;;;;;0.90;0.73;;;;;;;7.89;100.00;98727.97;15297164;19;20049;-76
2023/06/04 03:36:16;;;;;;;1.83;0.93;;;;;;;7.83;100.00;98731.16;15292229;19;20018;-76
2023/06/04 03:41:42;;;;;;;1.95;1.20;;;;;;;7.78;100.00;98738.78;15295023;19;20354;-77
2023/06/04 03:47:07;;;;;;;1.35;0.77;;;;;;;7.76;100.00;98743.44;15283497;19;20029;-76
2023/06/04 03:52:35;;;;;;;0.93;0.70;;;;;;;7.72;100.00;98745.56;15290524;19;20674;-75
2023/06/04 03:58:02;;;;;;;2.60;0.95;;;;;;;7.70;100.00;98751.03;15300489;19;20501;-77
2023/06/04 04:03:33;;;;;;;1.42;0.80;;;;;;;7.68;100.00;98749.47;15299347;19;20019;-77
2023/06/04 04:09:09;;;;;;;2.15;1.02;;;;;;;7.67;100.00;98737.03;15304322;19;20041;-81
2023/06/04 04:14:35;;;;;;;2.08;0.95;;;;;;;7.65;100.00;98750.59;15297171;19;20026;-83
2023/06/04 04:20:01;;;;;;;1.50;0.90;;;;;;;7.65;100.00;98741.69;15292545;19;20082;-82
2023/06/04 04:25:36;;;;;;;1.52;1.00;;;;;;;7.61;100.00;98745.66;15287275;19;20078;-81
2023/06/04 04:31:02;;;;;;;3.33;1.00;;;;;;;7.60;100.00;98752.00;15297293;19;20018;-82
2023/06/04 04:36:28;;;;;;;1.40;0.90;;;;;;;7.62;100.00;98756.22;15294295;19;20006;-81
2023/06/04 04:41:57;;;;;;;1.52;0.90;;;;;;;7.65;100.00;98755.97;15297260;19;20043;-82
2023/06/04 04:47:22;;;;;;;4.45;0.90;;;;;;;7.69;100.00;98752.03;15300272;19;20622;-80
2023/06/04 04:52:48;;;;;;;1.40;0.90;;;;;;;7.76;100.00;98746.13;15291528;19;20036;-82
2023/06/04 04:58:17;;;;;;;3.10;1.10;;;;;;;7.82;100.00;98762.53;15291039;19;20419;-81
2023/06/04 05:03:42;;;;;;;3.15;1.00;;;;;;;7.88;100.00;98766.50;15298050;19;20043;-80
2023/06/04 05:09:15;;;;;;;2.33;0.80;;;;;;;7.95;100.00;98762.28;15294361;19;20015;-81
2023/06/04 05:14:43;;;;;;;1.45;0.90;;;;;;;8.06;100.00;98760.47;15300905;19;20007;-81
2023/06/04 05:20:11;;;;;;;2.60;1.13;;;;;;;8.15;100.00;98767.72;15304713;19;20018;-80
2023/06/04 05:25:37;;;;;;;2.78;1.10;;;;;;;8.24;100.00;98783.00;15309041;19;20025;-81
2023/06/04 05:31:08;;;;;;;1.15;1.00;;;;;;;8.33;100.00;98771.44;15289877;19;20028;-81
2023/06/04 05:36:35;;;;;;;3.17;1.20;;;;;;;8.46;100.00;98775.69;14791342;19;10000405;-81
2023/06/04 05:42:03;;;;;;;1.80;1.10;;;;;;;8.58;100.00;98773.78;15325510;19;20006;-80
2023/06/04 05:47:33;;;;;;;2.47;1.10;;;;;;;8.72;100.00;98785.94;15332118;19;20024;-80
2023/06/04 05:52:58;;;;;;;2.30;1.10;;;;;;;8.82;100.00;98781.41;15304584;19;20025;-81
2023/06/04 05:58:37;;;;;;;3.13;1.02;;;;;;;9.02;100.00;98779.56;15334816;19;20018;-81
2023/06/04 06:04:06;;;;;;;1.75;1.08;;;;;;;9.18;100.00;98778.97;15304509;19;20042;-80
2023/06/04 06:09:37;;;;;;;1.70;0.90;;;;;;;9.38;100.00;98777.13;15286886;19;20022;-80
2023/06/04 06:15:02;;;;;;;;;;;;;;;9.59;100.00;98794.03;15286957;19;20495;-79
2023/06/04 06:20:33;;;;;;;1.17;0.90;;;;;;;9.76;100.00;98801.34;15288063;19;19922;-79
2023/06/04 06:26:01;;;;;;;1.75;1.10;;;;;;;10.01;100.00;98804.38;15285889;19;20027;-79
2023/06/04 06:31:31;;;;;;;1.27;1.10;;;;;;;10.26;100.00;98802.00;15281350;19;20096;-79
2023/06/04 06:36:58;;;;;;;2.38;1.00;;;;;;;10.51;100.00;98803.16;15286376;19;20018;-80
2023/06/04 06:42:23;;;;;;;1.40;1.17;;;;;;;10.77;100.00;98816.72;15285994;19;20015;-79
2023/06/04 06:47:49;;;;;;;2.00;1.20;;;;;;;11.03;100.00;98818.66;15287828;19;20021;-79
2023/06/04 06:53:17;;;;;;;1.33;1.08;;;;;;;11.33;100.00;98826.50;15291854;19;20617;-82
2023/06/04 06:58:41;;;;;;;3.53;1.05;;;;;;;11.57;100.00;98825.84;15288428;19;20025;-80
2023/06/04 07:04:06;;;;;;;3.13;1.10;;;;;;;11.86;100.00;98819.28;15285478;19;20014;-84
2023/06/04 07:09:41;;;;;;;1.23;0.82;;;;;;;12.32;100.00;98817.16;15281190;19;20098;-81
2023/06/04 07:15:08;;;;;;;1.98;0.80;;;;;;;12.70;100.00;98835.69;15292651;19;20504;-86
2023/06/04 07:20:36;;;;;;;2.60;0.85;;;;;;;13.05;100.00;98827.50;15295793;19;20011;-85
2023/06/04 07:26:03;;;;;;;2.35;1.00;;;;;;;13.40;100.00;98825.50;15291016;19;20010;-84
2023/06/04 07:31:35;;;;;;;3.70;0.80;;;;;;;13.84;99.16;98821.56;15293704;19;20015;-86
2023/06/04 07:37:00;;;;;;;2.72;0.77;;;;;;;14.22;95.26;98824.50;15287196;19;20021;-87
2023/06/04 07:42:29;;;;;;;3.50;0.75;;;;;;;14.56;86.06;98827.91;15291274;19;20021;-85
2023/06/04 07:47:53;;;;;;;3.17;0.77;;;;;;;14.85;82.67;98829.16;15290865;19;20014;-86
2023/06/04 07:53:19;;;;;;;1.00;0.60;;;;;;;15.13;74.18;98815.03;15300292;19;20085;-85
2023/06/04 07:58:46;;;;;;;2.53;0.85;;;;;;;15.41;66.64;98823.47;15307338;19;20022;-84
2023/06/04 08:04:11;;;;;;;1.05;0.70;;;;;;;15.66;66.79;98815.97;15295873;19;20086;-83
2023/06/04 08:09:43;;;;;;;1.27;0.60;;;;;;;15.89;62.69;98809.66;15288639;19;20090;-84
2023/06/04 08:15:19;;;;;;;2.03;0.60;;;;;;;16.13;57.25;98821.28;15299484;19;20098;-84
2023/06/04 08:20:52;;;;;;;1.33;0.57;;;;;;;16.33;55.16;98819.69;15307711;19;20018;-86
2023/06/04 08:26:16;;;;;;;1.92;0.60;;;;;;;16.49;54.76;98825.94;15280470;19;20090;-40
2023/06/04 08:31:44;;;;;;;1.83;0.50;;;;;;;16.65;51.13;98811.28;15282820;19;20017;-42
2023/06/04 08:37:10;;;;;;;3.20;0.52;;;;;;;16.76;52.78;98821.66;15280983;19;20081;-41
2023/06/04 08:42:44;;;;;;;1.42;0.47;;;;;;;16.99;50.56;98814.41;15279989;19;20020;-40
2023/06/04 08:48:13;;;;;;;4.90;0.55;;;;;;;17.14;52.98;98823.34;15281652;19;21257;-40
2023/06/04 08:53:39;;;;;;;1.23;0.57;;;;;;;17.28;50.00;98812.59;15285392;19;20019;-42
2023/06/04 08:59:08;;;;;;;1.75;0.60;;;;;;;17.41;50.79;98821.72;15282479;19;20025;-40
2023/06/04 09:04:37;;;;;;;2.83;0.60;;;;;;;17.50;48.54;98818.88;15284133;19;20017;-41
2023/06/04 09:27:05;;;;;;;0.50;0.50;;;;;;;18.06;48.16;98820.75;15314356;19;20458;-86
2023/06/04 09:32:36;;;;;;;1.08;0.50;;;;;;;18.26;47.94;98825.50;15323952;19;20055;-85
2023/06/04 09:38:02;;;;;;;1.05;0.50;;;;;;;18.32;48.16;98820.09;15315422;19;20018;-83
2023/06/04 09:43:32;;;;;;;4.55;0.65;;;;;;;18.45;47.29;98821.22;15319404;19;20022;-83
2023/06/04 09:48:56;;;;;;;0.82;0.50;;;;;;;18.56;48.26;98819.78;15308294;19;20085;-84
2023/06/04 09:54:21;;;;;;;4.03;0.70;;;;;;;18.74;46.05;98825.53;15307535;19;20086;-85
2023/06/04 09:59:50;;;;;;;1.45;0.65;;;;;;;18.79;46.59;98830.38;15308222;19;20074;-84
2023/06/04 10:05:23;;;;;;;1.35;0.52;;;;;;;18.91;45.89;98823.28;15307413;19;20034;-85
2023/06/04 10:10:48;;;;;;;0.85;0.50;;;;;;;19.08;47.08;98829.22;15291397;19;20019;-86
2023/06/04 10:16:17;;;;;;;3.00;0.52;;;;;;;19.14;43.73;98823.97;15286848;19;20400;-86
2023/06/04 10:21:53;;;;;;;1.92;0.70;;;;;;;19.17;43.58;98818.91;15293859;19;20066;-83
2023/06/04 10:27:20;;;;;;;2.90;0.63;;;;;;;19.21;44.82;98816.66;15304512;19;20015;-84
2023/06/04 10:32:47;;;;;;;2.05;0.65;;;;;;;19.31;45.31;98810.75;15292579;19;20743;-85
2023/06/04 10:38:16;;;;;;;2.13;0.70;;;;;;;19.35;43.71;98807.38;15298024;19;20033;-82
2023/06/04 10:43:42;;;;;;;1.75;0.47;;;;;;;19.51;44.76;98802.56;15298464;19;20022;-85
2023/06/04 10:49:14;;;;;;;2.65;0.50;;;;;;;19.64;43.18;98799.84;15294252;19;20561;-85
2023/06/04 10:54:39;;;;;;;0.68;0.40;;;;;;;19.76;44.63;98807.41;15298772;19;20014;-85
2023/06/04 11:00:09;;;;;;;1.20;0.60;;;;;;;19.76;43.29;98812.88;15304884;19;20466;-85
2023/06/04 11:05:50;;;;;;;1.58;0.60;;;;;;;19.87;43.54;98795.84;15300189;19;20034;-87
2023/06/04 11:11:19;;;;;;;1.13;0.50;;;;;;;19.99;44.53;98796.06;15293797;19;20827;-88
2023/06/04 11:16:44;;;;;;;1.10;0.60;;;;;;;20.16;44.49;98796.44;15294234;19;20920;-85
2023/06/04 11:22:24;;;;;;;0.60;0.60;;;;;;;20.31;42.31;98807.94;15290988;19;20006;-85
2023/06/04 11:27:57;;;;;;;1.20;0.70;;;;;;;20.55;43.37;98794.59;15307917;19;20018;-87
2023/06/04 11:33:22;;;;;;;2.40;0.50;;;;;;;20.58;41.29;98782.38;15317860;19;20358;-84
2023/06/04 11:38:49;;;;;;;3.25;0.50;;;;;;;20.89;42.99;98781.59;15314820;19;20010;-83
2023/06/04 11:44:15;;;;;;;2.50;0.52;;;;;;;21.13;42.34;98773.66;15313780;19;20058;-83
2023/06/04 11:49:42;;;;;;;1.90;0.68;;;;;;;21.24;40.64;98781.16;15309284;19;20014;-87
2023/06/04 11:55:12;;;;;;;1.55;0.60;;;;;;;21.30;39.70;98787.66;15308943;19;20406;-84
2023/06/04 12:00:37;;;;;;;0.60;0.50;;;;;;;21.40;41.49;98784.41;15315303;19;20036;-85
2023/06/04 12:06:16;;;;;;;2.35;0.70;;;;;;;21.43;37.11;98789.47;15307854;19;20014;-84
2023/06/04 12:11:44;;;;;;;4.10;0.60;;;;;;;21.45;38.46;98784.59;15309910;19;20082;-82
2023/06/04 12:17:11;;;;;;;;;;;;;;;21.61;39.90;98774.16;15309362;19;20022;-84
2023/06/04 12:22:36;;;;;;;0.95;0.50;;;;;;;21.88;39.84;98769.25;15317382;19;19917;-85
2023/06/04 12:28:10;;;;;;;2.70;0.60;;;;;;;22.20;38.28;98776.50;15317651;19;20014;-85
2023/06/04 12:33:36;;;;;;;0.82;0.50;;;;;;;22.13;36.42;98777.44;15338604;19;20087;-86
2023/06/04 12:39:02;;;;;;;1.65;0.60;;;;;;;22.13;35.26;98782.94;15312562;19;20018;-84
2023/06/04 12:44:31;;;;;;;1.08;0.60;;;;;;;21.64;36.29;98779.19;15305629;19;20006;-83
2023/06/04 12:49:56;;;;;;;2.67;0.60;;;;;;;21.99;37.46;98773.16;15319115;19;20010;-84
2023/06/04 12:55:22;;;;;;;2.25;0.60;;;;;;;22.36;35.92;98773.16;15310001;19;20018;-83
2023/06/04 13:00:49;;;;;;;1.15;0.50;;;;;;;22.71;35.30;98775.28;15313183;19;20045;-84
2023/06/04 13:06:14;;;;;;;0.68;0.45;;;;;;;23.02;35.24;98767.88;15315308;19;20330;-86
2023/06/04 13:11:38;;;;;;;1.60;0.50;;;;;;;23.36;34.39;98767.38;15309273;19;20086;-84
2023/06/04 13:17:07;;;;;;;1.33;0.60;;;;;;;23.54;32.35;98769.19;15303604;19;20013;-85
2023/06/04 13:22:40;;;;;;;1.35;0.50;;;;;;;23.72;32.79;98759.16;15309950;19;20017;-85
2023/06/04 13:28:12;;;;;;;1.13;0.60;;;;;;;23.96;31.80;98768.28;15302777;19;20027;-84
2023/06/04 13:33:41;;;;;;;1.70;0.43;;;;;;;24.33;31.71;98764.38;15301567;19;20023;-85
2023/06/04 13:39:06;;;;;;;1.08;0.40;;;;;;;24.70;32.19;98753.88;15312910;19;20368;-85
2023/06/04 13:44:32;;;;;;;0.88;0.43;;;;;;;24.92;30.76;98756.78;15307063;19;20014;-85
2023/06/04 13:49:59;;;;;;;2.58;0.50;;;;;;;25.21;31.30;98753.13;15312164;19;20011;-85
2023/06/04 13:55:31;;;;;;;0.82;0.50;;;;;;;25.47;32.46;98740.63;15364440;19;20015;-84
2023/06/04 14:00:52;;;;;;;0.77;0.45;;;;;;;25.35;31.19;98743.47;15372041;19;20034;-85
2023/06/04 14:06:21;;;;;;;1.75;0.43;;;;;;;25.43;29.77;98739.47;15366637;19;20017;-85
2023/06/04 14:11:50;;;;;;;2.63;0.50;;;;;;;25.46;30.99;98736.19;15340901;19;20606;-85
2023/06/04 14:17:15;;;;;;;2.90;0.40;;;;;;;25.68;29.58;98735.44;15308775;19;20017;-85
2023/06/04 14:22:45;;;;;;;0.80;0.40;;;;;;;26.12;29.98;98730.03;15312873;19;20015;-85
2023/06/04 14:28:10;;;;;;;0.85;0.50;;;;;;;25.26;29.81;98730.31;15309225;19;20014;-85
2023/06/04 14:33:36;;;;;;;1.33;0.50;;;;;;;25.60;30.66;98724.81;15312544;19;20019;-85
2023/06/04 14:39:06;;;;;;;1.65;0.40;;;;;;;24.49;30.40;98724.22;15307740;19;20031;-85
2023/06/04 14:44:31;;;;;;;0.77;0.38;;;;;;;24.90;30.83;98720.34;15318490;19;20014;-86
2023/06/04 14:49:57;;;;;;;1.75;0.30;;;;;;;25.01;29.77;98704.84;15319227;19;20015;-86
2023/06/04 14:55:24;;;;;;;1.17;0.40;;;;;;;25.18;29.98;98706.75;15315300;19;20014;-86
2023/06/04 15:00:50;;;;;;;1.90;0.50;;;;;;;25.58;30.07;98700.25;15319500;19;20493;-85
2023/06/04 15:06:19;;;;;;;1.42;0.35;;;;;;;25.74;29.96;98701.31;15311456;19;20371;-84
2023/06/04 15:11:48;;;;;;;1.65;0.40;;;;;;;26.00;29.53;98699.72;15302032;19;20399;-85
2023/06/04 15:17:13;;;;;;;2.55;0.40;;;;;;;25.81;29.91;98688.16;15301503;19;20079;-84
2023/06/04 15:22:40;;;;;;;1.17;0.50;;;;;;;26.11;29.37;98691.59;15301882;19;20006;-85
2023/06/04 15:28:08;;;;;;;1.58;0.43;;;;;;;26.41;29.51;98699.41;15296581;19;20026;-84
2023/06/04 15:33:34;;;;;;;2.42;0.60;;;;;;;26.42;29.32;98692.00;15310432;19;20011;-86
2023/06/04 15:38:58;;;;;;;0.40;0.40;;;;;;;26.55;29.15;98699.03;15304705;19;20054;-83
2023/06/04 15:44:26;;;;;;;1.92;0.40;;;;;;;26.72;28.46;98696.16;15302715;19;20033;-85
2023/06/04 15:49:52;;;;;;;1.15;0.40;;;;;;;26.81;28.84;98697.41;15305494;19;20019;-84
2023/06/04 15:55:18;;;;;;;1.23;0.50;;;;;;;26.59;27.97;98700.19;15309815;19;20014;-84
2023/06/04 16:00:45;;;;;;;0.93;0.50;;;;;;;26.61;28.42;98686.94;15314005;19;20041;-84
2023/06/04 16:06:16;;;;;;;1.10;0.40;;;;;;;26.78;28.72;98689.63;15300401;19;20465;-83
2023/06/04 16:11:42;;;;;;;0.98;0.40;;;;;;;26.79;28.11;98688.53;15309175;19;20014;-79
2023/06/04 16:17:09;;;;;;;1.90;0.50;;;;;;;26.81;28.14;98685.50;15311176;19;20070;-84
2023/06/04 16:22:35;;;;;;;1.83;0.57;;;;;;;26.77;27.22;98680.47;15321193;19;20078;-83
2023/06/04 16:28:09;;;;;;;1.38;0.50;;;;;;;26.84;27.41;98685.81;15304436;19;20022;-82
2023/06/04 16:33:41;;;;;;;0.57;0.30;;;;;;;26.59;26.63;98672.56;15317849;19;20022;-86
2023/06/04 16:39:06;;;;;;;3.40;0.60;;;;;;;26.66;28.12;98673.16;15308746;19;20038;-84
2023/06/04 16:44:31;;;;;;;1.55;0.50;;;;;;;26.45;26.57;98672.13;15300644;19;20015;-85
2023/06/04 16:49:58;;;;;;;1.05;0.50;;;;;;;26.53;27.90;98670.81;15312477;19;20018;-83
2023/06/04 16:55:31;;;;;;;0.88;0.38;;;;;;;26.63;28.01;98670.09;15308777;19;20014;-87
2023/06/04 17:00:56;;;;;;;1.00;0.40;;;;;;;26.50;28.17;98668.59;15306039;19;20018;-84
2023/06/04 17:06:31;;;;;;;0.95;0.30;;;;;;;26.37;27.77;98659.63;15318977;19;20030;-83
2023/06/04 17:11:51;;;;;;;3.45;0.47;;;;;;;26.30;28.22;98672.78;15354325;19;20035;-89
2023/06/04 17:17:17;;;;;;;1.38;0.40;;;;;;;25.94;27.91;98673.16;15371761;19;19999;-92
2023/06/04 17:22:44;;;;;;;0.68;0.32;;;;;;;25.87;28.41;98661.50;15342489;19;20085;-41
2023/06/04 17:28:09;;;;;;;1.52;0.50;;;;;;;25.74;28.56;98676.47;15279057;19;20437;-40
2023/06/04 17:33:33;;;;;;;1.65;0.30;;;;;;;25.68;29.23;98670.06;15280207;19;20025;-42
2023/06/04 17:39:03;;;;;;;0.82;0.40;;;;;;;25.34;29.41;98672.84;15278896;19;20043;-43
2023/06/04 17:44:28;;;;;;;1.80;0.50;;;;;;;25.32;30.24;98668.66;15262144;19;20016;-41
2023/06/04 17:49:54;;;;;;;2.25;0.45;;;;;;;25.20;30.13;98668.75;15271030;19;20025;-42
2023/06/04 17:55:24;;;;;;;0.93;0.60;;;;;;;25.05;30.65;98672.91;15277234;19;20015;-41
2023/06/04 18:00:50;;;;;;;1.10;0.50;;;;;;;25.01;31.14;98671.75;15281046;19;20010;-44
2023/06/04 18:06:15;;;;;;;1.02;0.40;;;;;;;24.83;31.00;98670.09;15279229;19;20018;-42
2023/06/04 18:11:43;;;;;;;2.85;0.50;;;;;;;24.46;31.49;98679.56;15283126;19;20022;-42
2023/06/04 18:17:07;;;;;;;1.30;0.50;;;;;;;24.09;31.97;98673.59;15281965;19;20018;-41
2023/06/04 18:22:32;;;;;;;1.25;0.43;;;;;;;23.79;32.44;98680.09;15268666;19;20078;-41
2023/06/04 18:27:59;;;;;;;1.00;0.50;;;;;;;23.38;32.65;98680.84;15278880;19;20034;-41
2023/06/04 18:33:26;;;;;;;2.22;0.55;;;;;;;23.00;33.06;98679.31;15274805;19;20090;-40
2023/06/04 18:38:50;;;;;;;1.45;0.60;;;;;;;22.68;33.28;98684.28;15274555;19;20081;-39
2023/06/04 18:44:18;;;;;;;0.65;0.40;;;;;;;22.29;34.04;98682.66;15280478;19;20023;-40
2023/06/04 18:49:42;;;;;;;0.35;0.30;;;;;;;21.85;34.61;98684.69;15274704;19;20025;-41
2023/06/04 18:55:10;;;;;;;1.92;0.60;;;;;;;21.39;35.60;98684.94;15263243;19;20093;-40
2023/06/04 19:00:37;;;;;;;1.17;0.40;;;;;;;21.03;37.01;98691.13;15276121;19;20474;-40
2023/06/04 19:06:02;;;;;;;2.70;0.40;;;;;;;20.64;37.56;98694.72;15276804;19;20835;-40
2023/06/04 19:11:27;;;;;;;1.13;0.43;;;;;;;20.32;37.56;98691.97;15275920;19;20011;-40
2023/06/04 19:16:55;;;;;;;3.28;0.60;;;;;;;20.02;38.46;98702.63;15269821;19;20025;-41
2023/06/04 19:22:19;;;;;;;2.35;0.60;;;;;;;19.71;38.68;98710.47;15276709;19;20021;-41
2023/06/04 19:27:44;;;;;;;2.45;0.60;;;;;;;19.46;38.88;98715.75;15264956;19;20443;-39
2023/06/04 19:33:11;;;;;;;0.77;0.60;;;;;;;19.21;39.43;98721.88;15273192;19;21156;-40
2023/06/04 19:38:37;;;;;;;1.75;0.60;;;;;;;18.91;39.83;98716.78;15272530;19;20014;-40
2023/06/04 19:44:01;;;;;;;0.85;0.55;;;;;;;18.67;39.81;98722.84;15271652;19;20031;-39
2023/06/04 19:49:29;;;;;;;2.50;0.68;;;;;;;18.46;40.18;98728.25;15279061;19;20019;-39
2023/06/04 19:54:54;;;;;;;0.90;0.60;;;;;;;18.29;40.37;98730.50;15286996;19;20339;-40
2023/06/04 20:00:20;;;;;;;1.33;0.57;;;;;;;18.14;41.92;98733.38;15277243;19;20014;-42
2023/06/04 20:05:47;;;;;;;0.80;0.50;;;;;;;17.86;42.89;98745.13;15288954;19;20021;-42
2023/06/04 20:11:14;;;;;;;2.80;0.50;;;;;;;17.63;43.41;98731.81;15287348;19;20014;-41
2023/06/04 20:16:39;;;;;;;1.02;0.50;;;;;;;17.49;43.56;98738.19;15285682;19;20738;-43
2023/06/04 20:22:08;;;;;;;2.25;0.60;;;;;;;17.28;44.12;98753.53;15287222;19;20015;-40
2023/06/04 20:27:32;;;;;;;0.95;0.68;;;;;;;17.13;43.99;98756.31;15284328;19;20022;-41
2023/06/04 20:32:57;;;;;;;0.88;0.70;;;;;;;16.94;45.29;98763.25;15280447;19;20014;-41
2023/06/04 20:38:24;;;;;;;1.05;0.60;;;;;;;16.76;45.56;98750.94;15282640;19;20363;-42
2023/06/04 20:43:50;;;;;;;1.08;0.60;;;;;;;16.59;46.57;98766.66;15286347;19;20021;-42
2023/06/04 20:49:15;;;;;;;1.30;0.70;;;;;;;16.41;47.23;98752.59;15283308;19;20481;-40
2023/06/04 20:54:43;;;;;;;0.75;0.50;;;;;;;16.23;48.04;98756.59;15283692;19;20026;-41
2023/06/04 21:00:07;;;;;;;1.45;0.70;;;;;;;16.08;48.59;98761.19;15276015;19;20674;-42
2023/06/04 21:05:32;;;;;;;1.42;0.90;;;;;;;15.94;49.60;98762.91;15280140;19;20014;-41
2023/06/04 21:11:00;;;;;;;1.65;0.80;;;;;;;15.78;50.11;98763.91;15280653;19;20031;-41
2023/06/04 21:16:25;;;;;;;0.90;0.80;;;;;;;15.62;51.41;98764.91;15285357;19;20010;-41
2023/06/04 21:21:50;;;;;;;2.08;0.80;;;;;;;15.48;51.58;98769.28;15286144;19;20030;-44
2023/06/04 21:27:18;;;;;;;1.25;0.70;;;;;;;15.31;53.00;98760.44;15281730;19;20359;-40
2023/06/04 21:32:45;;;;;;;1.17;0.60;;;;;;;15.14;53.59;98763.31;15279529;19;20475;-41
2023/06/04 21:38:10;;;;;;;1.02;0.60;;;;;;;14.96;55.43;98766.34;15274019;19;20021;-41
2023/06/04 21:43:37;;;;;;;1.02;0.73;;;;;;;14.79;55.82;98754.78;15282780;19;20082;-40
2023/06/04 21:49:02;;;;;;;2.35;0.60;;;;;;;14.62;56.53;98762.13;15270426;19;20018;-42
2023/06/04 21:54:26;;;;;;;1.25;0.55;;;;;;;14.48;56.80;98759.16;15275205;19;20010;-42
2023/06/04 21:59:54;;;;;;;2.05;0.50;;;;;;;14.36;57.80;98759.72;15280831;19;20017;-41
2023/06/04 22:05:28;;;;;;;1.77;0.60;;;;;;;14.22;57.99;98758.63;15279012;19;20015;-45
2023/06/04 22:10:53;;;;;;;0.50;0.50;;;;;;;14.06;59.37;98768.50;15271868;19;20623;-40
2023/06/04 22:16:20;;;;;;;1.50;0.80;;;;;;;13.90;60.29;98757.75;15274870;19;20015;-42
2023/06/04 22:21:45;;;;;;;0.50;0.50;;;;;;;13.76;62.77;98760.16;15272643;19;20010;-42
2023/06/04 22:27:09;;;;;;;1.17;0.70;;;;;;;13.61;64.84;98762.72;15277285;19;20038;-44
2023/06/04 22:32:37;;;;;;;0.93;0.70;;;;;;;13.47;68.52;98758.84;15279717;19;20481;-42
2023/06/04 22:38:03;;;;;;;1.55;0.65;;;;;;;13.32;70.69;98764.06;15274405;19;20022;-41
2023/06/04 22:43:28;;;;;;;0.77;0.77;;;;;;;13.18;74.52;98754.78;15273838;19;21236;-42
2023/06/04 22:48:56;;;;;;;4.53;0.80;;;;;;;13.03;78.87;98756.47;15276465;19;20089;-42
2023/06/04 22:54:21;;;;;;;2.17;0.70;;;;;;;12.88;82.55;98757.16;15274856;19;20369;-42
2023/06/04 22:59:46;;;;;;;2.78;0.90;;;;;;;12.79;78.08;98752.75;15275794;19;20098;-42
2023/06/04 23:05:15;;;;;;;2.35;0.68;;;;;;;12.74;78.09;98752.44;15277228;19;20035;-41
2023/06/04 23:10:39;;;;;;;1.25;0.60;;;;;;;12.67;78.10;98754.94;15270299;19;20077;-42
2023/06/04 23:16:04;;;;;;;1.20;0.68;;;;;;;12.58;77.24;98750.53;15266622;19;20014;-42
2023/06/04 23:21:31;;;;;;;2.03;0.80;;;;;;;12.45;72.81;98746.47;15276956;19;20106;-42
2023/06/04 23:26:56;;;;;;;0.70;0.70;;;;;;;12.41;71.54;98747.78;15292699;19;20007;-46
2023/06/04 23:32:20;;;;;;;1.20;0.90;;;;;;;12.40;70.73;98737.16;15294548;19;20010;-46
2023/06/04 23:37:48;;;;;;;3.35;0.75;;;;;;;12.36;72.87;98735.78;15291952;19;20357;-41
2023/06/04 23:43:12;;;;;;;0.63;0.60;;;;;;;12.31;73.88;98737.13;15289239;19;20745;-41
2023/06/04 23:48:37;;;;;;;1.67;0.70;;;;;;;12.27;76.01;98727.69;15287204;19;20078;-42
2023/06/04 23:54:04;;;;;;;1.98;0.77;;;;;;;12.22;76.59;98731.88;15293124;19;20018;-42
2023/06/04 23:59:29;;;;;;;1.95;0.70;;;;;;;12.18;76.36;98729.50;15291783;19;20805;-45
